sensor_id;sensor_type;location;lat;lon;timestamp;P1;durP1;ratioP1;P2;durP2;ratioP2
13566;SDS011;6855;48.112;11.298;2023-05-07T00:01:52;5.00;;;3.17;;
13566;SDS011;6855;48.112;11.298;2023-05-07T00:04:20;4.10;;;3.50;;
13566;SDS011;6855;48.112;11.298;2023-05-07T00:06:47;8.00;;;3.63;;
13566;SDS011;6855;48.112;11.298;2023-05-07T00:09:14;4.87;;;3.47;;
13566;SDS011;6855;48.112;11.298;2023-05-07T00:11:42;5.20;;;3.47;;
13566;SDS011;6855;48.112;11.298;2023-05-07T00:14:09;6.67;;;3.77;;
13566;SDS011;6855;48.112;11.298;2023-05-07T00:16:38;3.83;;;3.23;;
13566;SDS011;6855;48.112;11.298;2023-05-07T00:19:05;5.53;;;3.10;;
13566;SDS011;6855;48.112;11.298;2023-05-07T00:21:32;4.47;;;3.13;;
13566;SDS011;6855;48.112;11.298;2023-05-07T00:23:59;6.03;;;4.07;;
13566;SDS011;6855;48.112;11.298;2023-05-07T00:26:26;5.00;;;3.90;;
13566;SDS011;6855;48.112;11.298;2023-05-07T00:28:53;5.50;;;3.73;;
13566;SDS011;6855;48.112;11.298;2023-05-07T00:31:21;8.90;;;3.93;;
13566;SDS011;6855;48.112;11.298;2023-05-07T00:33:49;14.37;;;4.13;;
13566;SDS011;6855;48.112;11.298;2023-05-07T00:36:16;4.90;;;3.43;;
13566;SDS011;6855;48.112;11.298;2023-05-07T00:38:43;12.20;;;4.07;;
13566;SDS011;6855;48.112;11.298;2023-05-07T00:41:11;10.90;;;4.37;;
13566;SDS011;6855;48.112;11.298;2023-05-07T00:43:38;4.63;;;4.00;;
13566;SDS011;6855;48.112;11.298;2023-05-07T00:46:05;4.30;;;3.47;;
13566;SDS011;6855;48.112;11.298;2023-05-07T00:48:32;4.43;;;3.50;;
13566;SDS011;6855;48.112;11.298;2023-05-07T00:51:01;7.33;;;4.00;;
13566;SDS011;6855;48.112;11.298;2023-05-07T00:53:28;6.50;;;3.03;;
13566;SDS011;6855;48.112;11.298;2023-05-07T00:55:55;6.33;;;2.93;;
13566;SDS011;6855;48.112;11.298;2023-05-07T00:58:23;7.43;;;3.50;;
13566;SDS011;6855;48.112;11.298;2023-05-07T01:00:50;9.63;;;3.60;;
13566;SDS011;6855;48.112;11.298;2023-05-07T01:03:17;6.20;;;3.77;;
13566;SDS011;6855;48.112;11.298;2023-05-07T01:05:45;6.13;;;3.67;;
13566;SDS011;6855;48.112;11.298;2023-05-07T01:08:14;6.90;;;4.20;;
13566;SDS011;6855;48.112;11.298;2023-05-07T01:10:42;7.90;;;3.53;;
13566;SDS011;6855;48.112;11.298;2023-05-07T01:13:09;6.13;;;3.90;;
13566;SDS011;6855;48.112;11.298;2023-05-07T01:15:37;4.77;;;3.40;;
13566;SDS011;6855;48.112;11.298;2023-05-07T01:18:05;4.13;;;3.43;;
13566;SDS011;6855;48.112;11.298;2023-05-07T01:20:32;5.30;;;4.10;;
13566;SDS011;6855;48.112;11.298;2023-05-07T01:23:01;5.60;;;3.67;;
13566;SDS011;6855;48.112;11.298;2023-05-07T01:25:30;8.20;;;3.97;;
13566;SDS011;6855;48.112;11.298;2023-05-07T01:27:57;8.03;;;3.87;;
13566;SDS011;6855;48.112;11.298;2023-05-07T01:30:26;5.67;;;3.47;;
13566;SDS011;6855;48.112;11.298;2023-05-07T01:32:56;7.10;;;4.10;;
13566;SDS011;6855;48.112;11.298;2023-05-07T01:35:24;4.90;;;3.80;;
13566;SDS011;6855;48.112;11.298;2023-05-07T01:37:53;8.90;;;4.03;;
13566;SDS011;6855;48.112;11.298;2023-05-07T01:40:22;9.23;;;3.70;;
13566;SDS011;6855;48.112;11.298;2023-05-07T01:42:50;6.97;;;3.83;;
13566;SDS011;6855;48.112;11.298;2023-05-07T01:45:17;6.03;;;3.93;;
13566;SDS011;6855;48.112;11.298;2023-05-07T01:47:44;4.67;;;4.00;;
13566;SDS011;6855;48.112;11.298;2023-05-07T01:50:12;8.27;;;4.10;;
13566;SDS011;6855;48.112;11.298;2023-05-07T01:52:39;8.50;;;3.43;;
13566;SDS011;6855;48.112;11.298;2023-05-07T01:55:07;3.87;;;3.20;;
13566;SDS011;6855;48.112;11.298;2023-05-07T01:57:36;6.53;;;3.80;;
13566;SDS011;6855;48.112;11.298;2023-05-07T02:00:03;4.30;;;3.33;;
13566;SDS011;6855;48.112;11.298;2023-05-07T02:02:31;3.87;;;3.30;;
13566;SDS011;6855;48.112;11.298;2023-05-07T02:04:58;3.23;;;2.63;;
13566;SDS011;6855;48.112;11.298;2023-05-07T02:07:26;3.43;;;3.10;;
13566;SDS011;6855;48.112;11.298;2023-05-07T02:09:53;3.53;;;3.10;;
13566;SDS011;6855;48.112;11.298;2023-05-07T02:12:21;4.87;;;3.50;;
13566;SDS011;6855;48.112;11.298;2023-05-07T02:14:49;4.40;;;3.17;;
13566;SDS011;6855;48.112;11.298;2023-05-07T02:17:16;5.07;;;3.30;;
13566;SDS011;6855;48.112;11.298;2023-05-07T02:19:43;3.10;;;2.77;;
13566;SDS011;6855;48.112;11.298;2023-05-07T02:22:11;3.20;;;2.90;;
13566;SDS011;6855;48.112;11.298;2023-05-07T02:24:38;4.20;;;3.30;;
13566;SDS011;6855;48.112;11.298;2023-05-07T02:27:05;5.10;;;3.77;;
13566;SDS011;6855;48.112;11.298;2023-05-07T02:29:32;4.33;;;3.33;;
13566;SDS011;6855;48.112;11.298;2023-05-07T02:32:01;5.77;;;3.30;;
13566;SDS011;6855;48.112;11.298;2023-05-07T02:34:28;8.20;;;3.20;;
13566;SDS011;6855;48.112;11.298;2023-05-07T02:36:55;5.13;;;3.10;;
13566;SDS011;6855;48.112;11.298;2023-05-07T02:39:22;4.53;;;3.53;;
13566;SDS011;6855;48.112;11.298;2023-05-07T02:41:49;5.47;;;3.53;;
13566;SDS011;6855;48.112;11.298;2023-05-07T02:44:16;7.50;;;3.30;;
13566;SDS011;6855;48.112;11.298;2023-05-07T02:46:44;3.40;;;3.10;;
13566;SDS011;6855;48.112;11.298;2023-05-07T02:49:12;3.50;;;2.87;;
13566;SDS011;6855;48.112;11.298;2023-05-07T02:51:39;5.50;;;3.20;;
13566;SDS011;6855;48.112;11.298;2023-05-07T02:54:06;3.50;;;3.00;;
13566;SDS011;6855;48.112;11.298;2023-05-07T02:56:34;5.63;;;3.13;;
13566;SDS011;6855;48.112;11.298;2023-05-07T02:59:01;3.50;;;2.90;;
13566;SDS011;6855;48.112;11.298;2023-05-07T03:01:28;6.30;;;3.13;;
13566;SDS011;6855;48.112;11.298;2023-05-07T03:03:55;5.43;;;3.70;;
13566;SDS011;6855;48.112;11.298;2023-05-07T03:06:23;5.30;;;3.67;;
13566;SDS011;6855;48.112;11.298;2023-05-07T03:08:51;6.00;;;4.43;;
13566;SDS011;6855;48.112;11.298;2023-05-07T03:11:18;7.13;;;4.00;;
13566;SDS011;6855;48.112;11.298;2023-05-07T03:13:45;4.93;;;3.73;;
13566;SDS011;6855;48.112;11.298;2023-05-07T03:16:14;4.53;;;3.43;;
13566;SDS011;6855;48.112;11.298;2023-05-07T03:18:41;6.10;;;3.53;;
13566;SDS011;6855;48.112;11.298;2023-05-07T03:21:08;5.53;;;3.60;;
13566;SDS011;6855;48.112;11.298;2023-05-07T03:23:37;7.00;;;4.00;;
13566;SDS011;6855;48.112;11.298;2023-05-07T03:26:04;4.57;;;3.50;;
13566;SDS011;6855;48.112;11.298;2023-05-07T03:28:31;4.10;;;3.50;;
13566;SDS011;6855;48.112;11.298;2023-05-07T03:30:58;7.30;;;3.33;;
13566;SDS011;6855;48.112;11.298;2023-05-07T03:33:25;6.90;;;3.00;;
13566;SDS011;6855;48.112;11.298;2023-05-07T03:35:59;4.83;;;3.50;;
13566;SDS011;6855;48.112;11.298;2023-05-07T03:38:26;5.13;;;3.83;;
13566;SDS011;6855;48.112;11.298;2023-05-07T03:40:55;6.10;;;3.30;;
13566;SDS011;6855;48.112;11.298;2023-05-07T03:43:22;3.60;;;3.30;;
13566;SDS011;6855;48.112;11.298;2023-05-07T03:45:49;6.43;;;3.90;;
13566;SDS011;6855;48.112;11.298;2023-05-07T03:48:16;3.90;;;2.90;;
13566;SDS011;6855;48.112;11.298;2023-05-07T03:50:43;6.70;;;4.00;;
13566;SDS011;6855;48.112;11.298;2023-05-07T03:53:11;4.70;;;3.43;;
13566;SDS011;6855;48.112;11.298;2023-05-07T03:55:38;9.00;;;3.23;;
13566;SDS011;6855;48.112;11.298;2023-05-07T03:58:07;7.07;;;3.60;;
13566;SDS011;6855;48.112;11.298;2023-05-07T04:00:34;3.80;;;3.27;;
13566;SDS011;6855;48.112;11.298;2023-05-07T04:03:03;5.37;;;3.60;;
13566;SDS011;6855;48.112;11.298;2023-05-07T04:05:30;6.13;;;3.60;;
13566;SDS011;6855;48.112;11.298;2023-05-07T04:07:57;6.30;;;3.50;;
13566;SDS011;6855;48.112;11.298;2023-05-07T04:10:25;10.17;;;3.33;;
13566;SDS011;6855;48.112;11.298;2023-05-07T04:12:53;15.83;;;3.43;;
13566;SDS011;6855;48.112;11.298;2023-05-07T04:15:21;3.33;;;3.03;;
13566;SDS011;6855;48.112;11.298;2023-05-07T04:17:48;6.50;;;3.60;;
13566;SDS011;6855;48.112;11.298;2023-05-07T04:20:16;4.93;;;2.83;;
13566;SDS011;6855;48.112;11.298;2023-05-07T04:22:43;4.97;;;3.37;;
13566;SDS011;6855;48.112;11.298;2023-05-07T04:25:11;5.80;;;3.73;;
13566;SDS011;6855;48.112;11.298;2023-05-07T04:27:38;7.97;;;3.60;;
13566;SDS011;6855;48.112;11.298;2023-05-07T04:30:06;5.53;;;3.60;;
13566;SDS011;6855;48.112;11.298;2023-05-07T04:32:35;4.87;;;4.03;;
13566;SDS011;6855;48.112;11.298;2023-05-07T04:35:02;4.03;;;3.50;;
13566;SDS011;6855;48.112;11.298;2023-05-07T04:37:31;4.67;;;3.33;;
13566;SDS011;6855;48.112;11.298;2023-05-07T04:39:58;7.40;;;3.13;;
13566;SDS011;6855;48.112;11.298;2023-05-07T04:42:26;6.77;;;3.50;;
13566;SDS011;6855;48.112;11.298;2023-05-07T04:44:53;4.00;;;3.40;;
13566;SDS011;6855;48.112;11.298;2023-05-07T04:47:21;5.57;;;3.10;;
13566;SDS011;6855;48.112;11.298;2023-05-07T04:49:49;5.40;;;3.37;;
13566;SDS011;6855;48.112;11.298;2023-05-07T04:52:16;3.87;;;3.10;;
13566;SDS011;6855;48.112;11.298;2023-05-07T04:54:44;4.13;;;3.40;;
13566;SDS011;6855;48.112;11.298;2023-05-07T04:57:11;2.53;;;2.33;;
13566;SDS011;6855;48.112;11.298;2023-05-07T04:59:38;9.67;;;3.27;;
13566;SDS011;6855;48.112;11.298;2023-05-07T05:02:05;3.72;;;3.00;;
13566;SDS011;6855;48.112;11.298;2023-05-07T05:04:32;6.20;;;3.38;;
13566;SDS011;6855;48.112;11.298;2023-05-07T05:07:01;3.90;;;2.70;;
13566;SDS011;6855;48.112;11.298;2023-05-07T05:09:29;4.80;;;2.73;;
13566;SDS011;6855;48.112;11.298;2023-05-07T05:11:56;3.57;;;2.93;;
13566;SDS011;6855;48.112;11.298;2023-05-07T05:14:24;3.80;;;2.90;;
13566;SDS011;6855;48.112;11.298;2023-05-07T05:16:51;4.23;;;2.80;;
13566;SDS011;6855;48.112;11.298;2023-05-07T05:19:18;3.63;;;3.30;;
13566;SDS011;6855;48.112;11.298;2023-05-07T05:21:45;4.80;;;2.70;;
13566;SDS011;6855;48.112;11.298;2023-05-07T05:24:14;5.23;;;3.03;;
13566;SDS011;6855;48.112;11.298;2023-05-07T05:26:41;2.97;;;2.63;;
13566;SDS011;6855;48.112;11.298;2023-05-07T05:29:08;3.70;;;2.67;;
13566;SDS011;6855;48.112;11.298;2023-05-07T05:31:35;6.53;;;2.80;;
13566;SDS011;6855;48.112;11.298;2023-05-07T05:34:02;5.30;;;3.27;;
13566;SDS011;6855;48.112;11.298;2023-05-07T05:36:30;5.30;;;3.17;;
13566;SDS011;6855;48.112;11.298;2023-05-07T05:38:57;3.20;;;2.90;;
13566;SDS011;6855;48.112;11.298;2023-05-07T05:41:25;2.90;;;2.70;;
13566;SDS011;6855;48.112;11.298;2023-05-07T05:43:52;2.87;;;2.53;;
13566;SDS011;6855;48.112;11.298;2023-05-07T05:46:20;2.30;;;2.20;;
13566;SDS011;6855;48.112;11.298;2023-05-07T05:48:47;2.53;;;2.30;;
13566;SDS011;6855;48.112;11.298;2023-05-07T05:51:14;2.50;;;2.10;;
13566;SDS011;6855;48.112;11.298;2023-05-07T05:53:41;2.33;;;1.90;;
13566;SDS011;6855;48.112;11.298;2023-05-07T05:56:08;2.30;;;2.10;;
13566;SDS011;6855;48.112;11.298;2023-05-07T05:58:37;5.63;;;2.00;;
13566;SDS011;6855;48.112;11.298;2023-05-07T06:01:04;4.40;;;1.80;;
13566;SDS011;6855;48.112;11.298;2023-05-07T06:03:31;2.17;;;2.00;;
13566;SDS011;6855;48.112;11.298;2023-05-07T06:05:59;3.40;;;2.20;;
13566;SDS011;6855;48.112;11.298;2023-05-07T06:08:28;2.23;;;2.03;;
13566;SDS011;6855;48.112;11.298;2023-05-07T06:10:55;4.73;;;2.13;;
13566;SDS011;6855;48.112;11.298;2023-05-07T06:13:23;2.53;;;1.77;;
13566;SDS011;6855;48.112;11.298;2023-05-07T06:15:51;7.70;;;1.90;;
13566;SDS011;6855;48.112;11.298;2023-05-07T06:18:18;3.00;;;1.90;;
13566;SDS011;6855;48.112;11.298;2023-05-07T06:20:46;4.07;;;2.40;;
13566;SDS011;6855;48.112;11.298;2023-05-07T06:23:14;6.37;;;2.53;;
13566;SDS011;6855;48.112;11.298;2023-05-07T06:25:41;4.07;;;2.10;;
13566;SDS011;6855;48.112;11.298;2023-05-07T06:28:08;5.30;;;2.33;;
13566;SDS011;6855;48.112;11.298;2023-05-07T06:30:39;9.80;;;4.30;;
13566;SDS011;6855;48.112;11.298;2023-05-07T06:33:10;2.20;;;2.00;;
13566;SDS011;6855;48.112;11.298;2023-05-07T06:35:37;2.70;;;2.50;;
13566;SDS011;6855;48.112;11.298;2023-05-07T06:38:05;2.30;;;2.10;;
13566;SDS011;6855;48.112;11.298;2023-05-07T06:40:32;4.50;;;2.73;;
13566;SDS011;6855;48.112;11.298;2023-05-07T06:42:59;3.07;;;2.13;;
13566;SDS011;6855;48.112;11.298;2023-05-07T06:45:26;2.40;;;2.20;;
13566;SDS011;6855;48.112;11.298;2023-05-07T06:47:53;2.23;;;2.03;;
13566;SDS011;6855;48.112;11.298;2023-05-07T06:50:22;2.47;;;2.27;;
13566;SDS011;6855;48.112;11.298;2023-05-07T06:52:49;2.90;;;1.97;;
13566;SDS011;6855;48.112;11.298;2023-05-07T06:55:17;2.23;;;2.13;;
13566;SDS011;6855;48.112;11.298;2023-05-07T06:57:44;2.87;;;2.47;;
13566;SDS011;6855;48.112;11.298;2023-05-07T07:00:12;3.20;;;2.40;;
13566;SDS011;6855;48.112;11.298;2023-05-07T07:02:39;2.40;;;2.20;;
13566;SDS011;6855;48.112;11.298;2023-05-07T07:05:07;2.27;;;1.93;;
13566;SDS011;6855;48.112;11.298;2023-05-07T07:07:35;2.00;;;1.90;;
13566;SDS011;6855;48.112;11.298;2023-05-07T07:10:03;4.10;;;2.37;;
13566;SDS011;6855;48.112;11.298;2023-05-07T07:12:32;2.47;;;2.10;;
13566;SDS011;6855;48.112;11.298;2023-05-07T07:14:59;2.67;;;2.47;;
13566;SDS011;6855;48.112;11.298;2023-05-07T07:17:27;2.37;;;2.17;;
13566;SDS011;6855;48.112;11.298;2023-05-07T07:19:54;2.90;;;2.33;;
13566;SDS011;6855;48.112;11.298;2023-05-07T07:22:21;2.93;;;2.40;;
13566;SDS011;6855;48.112;11.298;2023-05-07T07:24:50;2.73;;;2.30;;
13566;SDS011;6855;48.112;11.298;2023-05-07T07:27:17;2.73;;;2.53;;
13566;SDS011;6855;48.112;11.298;2023-05-07T07:29:44;2.70;;;2.10;;
13566;SDS011;6855;48.112;11.298;2023-05-07T07:32:11;2.70;;;2.50;;
13566;SDS011;6855;48.112;11.298;2023-05-07T07:34:39;4.47;;;2.80;;
13566;SDS011;6855;48.112;11.298;2023-05-07T07:37:06;2.73;;;2.40;;
13566;SDS011;6855;48.112;11.298;2023-05-07T07:39:33;2.70;;;2.50;;
13566;SDS011;6855;48.112;11.298;2023-05-07T07:42:04;2.80;;;2.10;;
13566;SDS011;6855;48.112;11.298;2023-05-07T07:44:31;3.23;;;2.43;;
13566;SDS011;6855;48.112;11.298;2023-05-07T07:46:58;2.53;;;2.33;;
13566;SDS011;6855;48.112;11.298;2023-05-07T07:49:25;3.90;;;2.83;;
13566;SDS011;6855;48.112;11.298;2023-05-07T07:51:52;2.67;;;2.30;;
13566;SDS011;6855;48.112;11.298;2023-05-07T07:54:21;4.60;;;2.23;;
13566;SDS011;6855;48.112;11.298;2023-05-07T07:56:48;2.60;;;2.47;;
13566;SDS011;6855;48.112;11.298;2023-05-07T07:59:17;5.93;;;2.60;;
13566;SDS011;6855;48.112;11.298;2023-05-07T08:01:45;3.77;;;2.40;;
13566;SDS011;6855;48.112;11.298;2023-05-07T08:04:13;5.00;;;2.90;;
13566;SDS011;6855;48.112;11.298;2023-05-07T08:06:40;2.40;;;2.10;;
13566;SDS011;6855;48.112;11.298;2023-05-07T08:09:07;2.60;;;2.17;;
13566;SDS011;6855;48.112;11.298;2023-05-07T08:11:35;2.30;;;2.10;;
13566;SDS011;6855;48.112;11.298;2023-05-07T08:14:02;3.17;;;2.50;;
13566;SDS011;6855;48.112;11.298;2023-05-07T08:16:30;2.30;;;2.20;;
13566;SDS011;6855;48.112;11.298;2023-05-07T08:18:57;5.57;;;2.07;;
13566;SDS011;6855;48.112;11.298;2023-05-07T08:21:25;3.20;;;2.33;;
13566;SDS011;6855;48.112;11.298;2023-05-07T08:23:52;8.83;;;2.50;;
13566;SDS011;6855;48.112;11.298;2023-05-07T08:26:19;3.70;;;2.60;;
13566;SDS011;6855;48.112;11.298;2023-05-07T08:28:46;8.70;;;2.20;;
13566;SDS011;6855;48.112;11.298;2023-05-07T08:31:18;2.53;;;2.33;;
13566;SDS011;6855;48.112;11.298;2023-05-07T08:33:47;5.00;;;2.70;;
13566;SDS011;6855;48.112;11.298;2023-05-07T08:36:14;4.27;;;2.30;;
13566;SDS011;6855;48.112;11.298;2023-05-07T08:38:44;2.60;;;2.33;;
13566;SDS011;6855;48.112;11.298;2023-05-07T08:41:11;2.90;;;2.70;;
13566;SDS011;6855;48.112;11.298;2023-05-07T08:43:38;3.00;;;2.80;;
13566;SDS011;6855;48.112;11.298;2023-05-07T08:46:08;2.77;;;2.57;;
13566;SDS011;6855;48.112;11.298;2023-05-07T08:48:36;2.93;;;2.63;;
13566;SDS011;6855;48.112;11.298;2023-05-07T08:51:05;2.80;;;2.60;;
13566;SDS011;6855;48.112;11.298;2023-05-07T08:53:32;2.60;;;2.40;;
13566;SDS011;6855;48.112;11.298;2023-05-07T08:56:00;3.80;;;3.23;;
13566;SDS011;6855;48.112;11.298;2023-05-07T08:58:27;2.87;;;2.67;;
13566;SDS011;6855;48.112;11.298;2023-05-07T09:00:54;4.53;;;3.47;;
13566;SDS011;6855;48.112;11.298;2023-05-07T09:03:21;3.00;;;2.70;;
13566;SDS011;6855;48.112;11.298;2023-05-07T09:05:49;4.97;;;3.13;;
13566;SDS011;6855;48.112;11.298;2023-05-07T09:08:17;3.20;;;3.00;;
13566;SDS011;6855;48.112;11.298;2023-05-07T09:10:44;2.87;;;2.60;;
13566;SDS011;6855;48.112;11.298;2023-05-07T09:13:12;2.80;;;2.60;;
13566;SDS011;6855;48.112;11.298;2023-05-07T09:15:40;5.57;;;3.20;;
13566;SDS011;6855;48.112;11.298;2023-05-07T09:18:09;3.00;;;2.80;;
13566;SDS011;6855;48.112;11.298;2023-05-07T09:20:37;2.97;;;2.67;;
13566;SDS011;6855;48.112;11.298;2023-05-07T09:23:04;3.57;;;3.27;;
13566;SDS011;6855;48.112;11.298;2023-05-07T09:25:34;2.93;;;2.73;;
13566;SDS011;6855;48.112;11.298;2023-05-07T09:28:01;3.37;;;2.80;;
13566;SDS011;6855;48.112;11.298;2023-05-07T09:30:29;2.83;;;2.63;;
13566;SDS011;6855;48.112;11.298;2023-05-07T09:32:57;3.40;;;3.10;;
13566;SDS011;6855;48.112;11.298;2023-05-07T09:35:24;2.70;;;2.50;;
13566;SDS011;6855;48.112;11.298;2023-05-07T09:38:06;2.97;;;2.77;;
13566;SDS011;6855;48.112;11.298;2023-05-07T09:40:34;2.87;;;2.67;;
13566;SDS011;6855;48.112;11.298;2023-05-07T09:43:08;4.83;;;2.93;;
13566;SDS011;6855;48.112;11.298;2023-05-07T09:45:36;2.73;;;2.43;;
13566;SDS011;6855;48.112;11.298;2023-05-07T09:48:04;3.73;;;2.30;;
13566;SDS011;6855;48.112;11.298;2023-05-07T09:50:32;3.00;;;2.73;;
13566;SDS011;6855;48.112;11.298;2023-05-07T09:53:01;2.57;;;2.10;;
13566;SDS011;6855;48.112;11.298;2023-05-07T09:55:28;3.67;;;2.40;;
13566;SDS011;6855;48.112;11.298;2023-05-07T09:58:00;3.20;;;2.20;;
13566;SDS011;6855;48.112;11.298;2023-05-07T10:00:27;2.80;;;2.27;;
13566;SDS011;6855;48.112;11.298;2023-05-07T10:02:56;2.67;;;2.47;;
13566;SDS011;6855;48.112;11.298;2023-05-07T10:05:24;3.03;;;2.10;;
13566;SDS011;6855;48.112;11.298;2023-05-07T10:07:53;2.00;;;1.90;;
13566;SDS011;6855;48.112;11.298;2023-05-07T10:10:22;4.10;;;2.00;;
13566;SDS011;6855;48.112;11.298;2023-05-07T10:12:50;2.30;;;2.10;;
13566;SDS011;6855;48.112;11.298;2023-05-07T10:15:19;3.30;;;3.00;;
13566;SDS011;6855;48.112;11.298;2023-05-07T10:17:46;2.40;;;2.20;;
13566;SDS011;6855;48.112;11.298;2023-05-07T10:20:15;2.57;;;2.37;;
13566;SDS011;6855;48.112;11.298;2023-05-07T10:22:43;5.63;;;2.20;;
13566;SDS011;6855;48.112;11.298;2023-05-07T10:25:13;2.50;;;2.30;;
13566;SDS011;6855;48.112;11.298;2023-05-07T10:27:41;2.00;;;1.80;;
13566;SDS011;6855;48.112;11.298;2023-05-07T10:30:12;2.77;;;2.50;;
13566;SDS011;6855;48.112;11.298;2023-05-07T10:32:45;5.23;;;2.80;;
13566;SDS011;6855;48.112;11.298;2023-05-07T10:35:14;3.10;;;2.90;;
13566;SDS011;6855;48.112;11.298;2023-05-07T10:37:43;3.87;;;2.70;;
13566;SDS011;6855;48.112;11.298;2023-05-07T10:40:11;3.50;;;2.63;;
13566;SDS011;6855;48.112;11.298;2023-05-07T10:42:38;3.00;;;2.80;;
13566;SDS011;6855;48.112;11.298;2023-05-07T10:45:12;3.20;;;2.90;;
13566;SDS011;6855;48.112;11.298;2023-05-07T10:50:25;2.90;;;2.70;;
13566;SDS011;6855;48.112;11.298;2023-05-07T10:55:38;2.33;;;2.10;;
13566;SDS011;6855;48.112;11.298;2023-05-07T10:58:22;3.00;;;2.03;;
13566;SDS011;6855;48.112;11.298;2023-05-07T11:00:50;2.07;;;1.97;;
13566;SDS011;6855;48.112;11.298;2023-05-07T11:03:17;4.10;;;2.20;;
13566;SDS011;6855;48.112;11.298;2023-05-07T11:05:46;2.37;;;1.93;;
13566;SDS011;6855;48.112;11.298;2023-05-07T11:08:14;3.80;;;2.07;;
13566;SDS011;6855;48.112;11.298;2023-05-07T11:10:49;1.80;;;1.70;;
13566;SDS011;6855;48.112;11.298;2023-05-07T11:13:17;2.33;;;2.13;;
13566;SDS011;6855;48.112;11.298;2023-05-07T11:15:44;2.10;;;1.90;;
13566;SDS011;6855;48.112;11.298;2023-05-07T11:18:13;2.87;;;2.63;;
13566;SDS011;6855;48.112;11.298;2023-05-07T11:26:16;5.17;;;2.67;;
13566;SDS011;6855;48.112;11.298;2023-05-07T11:28:43;5.23;;;2.43;;
13566;SDS011;6855;48.112;11.298;2023-05-07T11:31:11;3.10;;;1.97;;
13566;SDS011;6855;48.112;11.298;2023-05-07T11:33:38;3.20;;;2.37;;
13566;SDS011;6855;48.112;11.298;2023-05-07T11:36:07;2.07;;;1.97;;
13566;SDS011;6855;48.112;11.298;2023-05-07T11:38:35;2.07;;;1.90;;
13566;SDS011;6855;48.112;11.298;2023-05-07T11:41:02;4.23;;;2.30;;
13566;SDS011;6855;48.112;11.298;2023-05-07T11:43:31;3.63;;;2.33;;
13566;SDS011;6855;48.112;11.298;2023-05-07T11:46:07;3.07;;;2.30;;
13566;SDS011;6855;48.112;11.298;2023-05-07T11:48:35;6.50;;;2.60;;
13566;SDS011;6855;48.112;11.298;2023-05-07T11:51:03;2.80;;;2.60;;
13566;SDS011;6855;48.112;11.298;2023-05-07T11:53:35;5.30;;;2.93;;
13566;SDS011;6855;48.112;11.298;2023-05-07T11:56:06;3.50;;;3.20;;
13566;SDS011;6855;48.112;11.298;2023-05-07T11:58:35;2.90;;;2.70;;
13566;SDS011;6855;48.112;11.298;2023-05-07T12:01:02;3.23;;;2.87;;
13566;SDS011;6855;48.112;11.298;2023-05-07T12:03:29;5.77;;;3.07;;
13566;SDS011;6855;48.112;11.298;2023-05-07T12:05:57;2.60;;;2.37;;
13566;SDS011;6855;48.112;11.298;2023-05-07T12:08:24;2.80;;;2.60;;
13566;SDS011;6855;48.112;11.298;2023-05-07T12:10:51;3.53;;;2.73;;
13566;SDS011;6855;48.112;11.298;2023-05-07T12:13:19;2.90;;;2.43;;
13566;SDS011;6855;48.112;11.298;2023-05-07T12:15:47;3.70;;;2.87;;
13566;SDS011;6855;48.112;11.298;2023-05-07T12:18:19;4.13;;;2.90;;
13566;SDS011;6855;48.112;11.298;2023-05-07T12:20:47;3.17;;;2.87;;
13566;SDS011;6855;48.112;11.298;2023-05-07T12:23:15;3.33;;;3.10;;
13566;SDS011;6855;48.112;11.298;2023-05-07T12:25:43;3.20;;;2.90;;
13566;SDS011;6855;48.112;11.298;2023-05-07T12:28:12;3.27;;;3.07;;
13566;SDS011;6855;48.112;11.298;2023-05-07T12:30:41;4.10;;;3.30;;
13566;SDS011;6855;48.112;11.298;2023-05-07T12:33:10;3.50;;;3.20;;
13566;SDS011;6855;48.112;11.298;2023-05-07T12:35:39;3.87;;;3.10;;
13566;SDS011;6855;48.112;11.298;2023-05-07T12:38:07;3.40;;;3.20;;
13566;SDS011;6855;48.112;11.298;2023-05-07T12:40:36;3.50;;;3.20;;
13566;SDS011;6855;48.112;11.298;2023-05-07T12:43:03;3.23;;;2.93;;
13566;SDS011;6855;48.112;11.298;2023-05-07T12:45:30;3.00;;;2.80;;
13566;SDS011;6855;48.112;11.298;2023-05-07T12:48:00;4.50;;;2.97;;
13566;SDS011;6855;48.112;11.298;2023-05-07T12:50:32;4.07;;;2.80;;
13566;SDS011;6855;48.112;11.298;2023-05-07T12:52:59;3.37;;;3.10;;
13566;SDS011;6855;48.112;11.298;2023-05-07T12:55:28;3.00;;;2.70;;
13566;SDS011;6855;48.112;11.298;2023-05-07T12:57:55;4.00;;;2.70;;
13566;SDS011;6855;48.112;11.298;2023-05-07T13:00:33;2.57;;;2.37;;
13566;SDS011;6855;48.112;11.298;2023-05-07T13:03:00;4.93;;;3.07;;
13566;SDS011;6855;48.112;11.298;2023-05-07T13:05:28;3.80;;;3.60;;
13566;SDS011;6855;48.112;11.298;2023-05-07T13:07:56;3.80;;;3.00;;
13566;SDS011;6855;48.112;11.298;2023-05-07T13:10:24;3.13;;;2.80;;
13566;SDS011;6855;48.112;11.298;2023-05-07T13:12:51;2.87;;;2.63;;
13566;SDS011;6855;48.112;11.298;2023-05-07T13:15:18;2.53;;;2.33;;
13566;SDS011;6855;48.112;11.298;2023-05-07T13:17:45;3.53;;;3.23;;
13566;SDS011;6855;48.112;11.298;2023-05-07T13:20:13;2.60;;;2.40;;
13566;SDS011;6855;48.112;11.298;2023-05-07T13:22:40;2.33;;;2.10;;
13566;SDS011;6855;48.112;11.298;2023-05-07T13:25:09;2.40;;;2.20;;
13566;SDS011;6855;48.112;11.298;2023-05-07T13:27:36;2.30;;;2.10;;
13566;SDS011;6855;48.112;11.298;2023-05-07T13:30:04;3.90;;;2.50;;
13566;SDS011;6855;48.112;11.298;2023-05-07T13:32:32;2.57;;;2.40;;
13566;SDS011;6855;48.112;11.298;2023-05-07T13:35:00;2.43;;;2.23;;
13566;SDS011;6855;48.112;11.298;2023-05-07T13:37:27;2.90;;;2.70;;
13566;SDS011;6855;48.112;11.298;2023-05-07T13:39:54;2.90;;;2.40;;
13566;SDS011;6855;48.112;11.298;2023-05-07T13:42:23;2.30;;;2.20;;
13566;SDS011;6855;48.112;11.298;2023-05-07T13:44:50;2.90;;;2.60;;
13566;SDS011;6855;48.112;11.298;2023-05-07T13:47:17;2.70;;;2.50;;
13566;SDS011;6855;48.112;11.298;2023-05-07T13:49:44;3.00;;;2.77;;
13566;SDS011;6855;48.112;11.298;2023-05-07T13:52:14;3.00;;;2.53;;
13566;SDS011;6855;48.112;11.298;2023-05-07T13:54:41;5.00;;;2.80;;
13566;SDS011;6855;48.112;11.298;2023-05-07T13:57:08;3.30;;;2.60;;
13566;SDS011;6855;48.112;11.298;2023-05-07T13:59:37;6.50;;;2.40;;
13566;SDS011;6855;48.112;11.298;2023-05-07T14:02:05;2.43;;;2.33;;
13566;SDS011;6855;48.112;11.298;2023-05-07T14:04:34;2.83;;;2.57;;
13566;SDS011;6855;48.112;11.298;2023-05-07T14:07:01;4.27;;;3.53;;
13566;SDS011;6855;48.112;11.298;2023-05-07T14:09:28;2.40;;;2.30;;
13566;SDS011;6855;48.112;11.298;2023-05-07T14:11:55;2.70;;;2.50;;
13566;SDS011;6855;48.112;11.298;2023-05-07T14:14:22;2.30;;;2.10;;
13566;SDS011;6855;48.112;11.298;2023-05-07T14:16:51;2.77;;;2.57;;
13566;SDS011;6855;48.112;11.298;2023-05-07T14:19:18;3.60;;;2.63;;
13566;SDS011;6855;48.112;11.298;2023-05-07T14:21:47;2.73;;;2.30;;
13566;SDS011;6855;48.112;11.298;2023-05-07T14:24:14;2.40;;;2.20;;
13566;SDS011;6855;48.112;11.298;2023-05-07T14:26:42;2.30;;;2.17;;
13566;SDS011;6855;48.112;11.298;2023-05-07T14:29:15;3.77;;;2.73;;
13566;SDS011;6855;48.112;11.298;2023-05-07T14:31:55;3.30;;;3.07;;
13566;SDS011;6855;48.112;11.298;2023-05-07T14:34:23;3.60;;;3.17;;
13566;SDS011;6855;48.112;11.298;2023-05-07T14:36:50;9.67;;;3.10;;
13566;SDS011;6855;48.112;11.298;2023-05-07T14:39:17;2.93;;;2.73;;
13566;SDS011;6855;48.112;11.298;2023-05-07T14:41:44;3.30;;;3.00;;
13566;SDS011;6855;48.112;11.298;2023-05-07T14:44:22;4.53;;;2.73;;
13566;SDS011;6855;48.112;11.298;2023-05-07T14:47:14;3.13;;;2.83;;
13566;SDS011;6855;48.112;11.298;2023-05-07T14:49:42;3.60;;;2.43;;
13566;SDS011;6855;48.112;11.298;2023-05-07T14:52:10;5.40;;;3.50;;
13566;SDS011;6855;48.112;11.298;2023-05-07T14:54:37;3.47;;;3.10;;
13566;SDS011;6855;48.112;11.298;2023-05-07T14:57:05;3.07;;;2.87;;
13566;SDS011;6855;48.112;11.298;2023-05-07T14:59:32;3.07;;;2.87;;
13566;SDS011;6855;48.112;11.298;2023-05-07T15:01:59;5.03;;;2.50;;
13566;SDS011;6855;48.112;11.298;2023-05-07T15:04:28;6.30;;;2.30;;